Time;durP1;ratioP1;P1;durP2;ratioP2;P2;SDS_P1;SDS_P2;PMS_P1;PMS_P2;Temp;Humidity;BMP_temperature;BMP_pressure;BME280_temperature;BME280_humidity;BME280_pressure;Samples;Min_cycle;Max_cycle;Signal;HPM_P1;HPM_P2
2022/04/28 00:00:24;;;;;;;9.80;3.97;;;;;;;;;;5010038;28;20455;-88
2022/04/28 00:02:52;;;;;;;12.88;3.95;;;;;;;;;;5018270;28;20049;-88
2022/04/28 00:05:21;;;;;;;10.88;4.20;;;;;;;;;;5023402;28;20068;-88
2022/04/28 00:07:52;;;;;;;13.70;3.75;;;;;;;;;;5020987;28;20560;-88
2022/04/28 00:10:20;;;;;;;9.63;3.13;;;;;;;;;;5036126;28;20052;-88
2022/04/28 00:12:48;;;;;;;10.38;3.58;;;;;;;;;;5020381;28;20094;-88
2022/04/28 00:15:16;;;;;;;9.32;3.50;;;;;;;;;;5020529;28;20052;-88
2022/04/28 00:17:44;;;;;;;7.05;3.53;;;;;;;;;;5020644;28;20033;-88
2022/04/28 00:20:12;;;;;;;10.18;3.50;;;;;;;;;;5003564;28;20048;-88
2022/04/28 00:22:40;;;;;;;9.98;3.95;;;;;;;;;;5026957;28;20498;-88
2022/04/28 00:25:08;;;;;;;6.85;3.20;;;;;;;;;;5019029;28;20049;-88
2022/04/28 00:27:37;;;;;;;11.27;4.28;;;;;;;;;;5027601;28;20554;-88
2022/04/28 00:30:05;;;;;;;7.25;2.90;;;;;;;;;;5052418;28;20041;-88
2022/04/28 00:32:35;;;;;;;9.10;3.47;;;;;;;;;;5022380;28;20049;-88
2022/04/28 00:35:02;;;;;;;13.48;3.63;;;;;;;;;;5025490;28;20094;-88
2022/04/28 00:37:30;;;;;;;7.55;3.58;;;;;;;;;;5036523;28;20162;-88
2022/04/28 00:39:58;;;;;;;8.93;3.50;;;;;;;;;;4999055;28;20040;-88
2022/04/28 00:42:26;;;;;;;12.15;3.55;;;;;;;;;;5002841;28;20064;-88
2022/04/28 00:44:54;;;;;;;9.77;3.78;;;;;;;;;;5020966;28;20063;-88
2022/04/28 00:47:22;;;;;;;8.63;3.78;;;;;;;;;;5033271;28;20050;-88
2022/04/28 00:52:36;;;;;;;8.80;3.63;;;;;;;;;;5052787;28;20076;-89
2022/04/28 00:55:04;;;;;;;15.50;3.47;;;;;;;;;;5022516;28;20064;-89
2022/04/28 00:57:33;;;;;;;12.82;4.25;;;;;;;;;;5019160;28;20037;-90
2022/04/28 01:00:01;;;;;;;8.52;3.33;;;;;;;;;;5032730;28;20051;-90
2022/04/28 01:02:28;;;;;;;8.43;3.50;;;;;;;;;;5038293;28;20045;-90
2022/04/28 01:04:56;;;;;;;8.35;3.60;;;;;;;;;;5043976;28;20053;-90
2022/04/28 01:07:24;;;;;;;8.48;3.20;;;;;;;;;;5044411;28;20125;-90
2022/04/28 01:09:52;;;;;;;6.55;3.10;;;;;;;;;;5041255;28;20045;-90
2022/04/28 01:12:21;;;;;;;6.22;3.08;;;;;;;;;;5028882;28;20128;-90
2022/04/28 01:14:54;;;;;;;6.80;3.50;;;;;;;;;;5015179;28;20053;-89
2022/04/28 01:17:22;;;;;;;11.98;3.75;;;;;;;;;;5022750;28;20053;-90
2022/04/28 01:20:00;;;;;;;6.45;2.90;;;;;;;;;;5037037;28;20041;-90
2022/04/28 01:22:31;;;;;;;8.98;3.97;;;;;;;;;;5020165;28;20037;-90
2022/04/28 01:25:07;;;;;;;6.60;3.33;;;;;;;;;;5015046;28;20068;-89
2022/04/28 01:27:36;;;;;;;8.32;3.47;;;;;;;;;;5055277;28;20041;-90
2022/04/28 01:30:11;;;;;;;8.88;3.83;;;;;;;;;;5018962;28;20033;-90
2022/04/28 01:32:41;;;;;;;10.10;4.03;;;;;;;;;;5029975;28;20432;-90
2022/04/28 01:35:09;;;;;;;11.70;4.03;;;;;;;;;;5019643;28;22110;-89
2022/04/28 01:37:36;;;;;;;11.27;4.25;;;;;;;;;;5034967;28;20045;-89
2022/04/28 01:40:11;;;;;;;9.40;3.65;;;;;;;;;;5017580;28;20048;-90
2022/04/28 01:42:43;;;;;;;9.25;4.05;;;;;;;;;;5007554;28;20519;-90
2022/04/28 01:45:11;;;;;;;8.48;4.43;;;;;;;;;;5031048;28;20045;-90
2022/04/28 01:47:56;;;;;;;9.25;3.65;;;;;;;;;;5017771;28;20052;-90
2022/04/28 01:54:57;;;;;;;8.18;3.92;;;;;;;;;;5025118;28;20055;-90
2022/04/28 01:56:40;;;;;;;7.07;3.58;;;;;;;;;;5040858;28;20132;-90
2022/04/28 01:59:40;;;;;;;9.52;3.28;;;;;;;;;;4977991;28;20066;-90
2022/04/28 02:02:31;;;;;;;11.27;3.28;;;;;;;;;;4989150;28;20133;-90
2022/04/28 02:05:03;;;;;;;11.38;3.65;;;;;;;;;;4993434;28;20710;-90
2022/04/28 02:07:30;;;;;;;7.57;3.50;;;;;;;;;;4990247;28;20141;-90
2022/04/28 02:09:58;;;;;;;12.15;4.13;;;;;;;;;;4976461;28;20066;-90
2022/04/28 02:12:26;;;;;;;11.65;3.50;;;;;;;;;;4976387;28;20062;-89
2022/04/28 02:15:12;;;;;;;11.27;4.07;;;;;;;;;;4993338;28;20051;-90
2022/04/28 02:17:58;;;;;;;10.98;3.90;;;;;;;;;;4975888;28;20049;-90
2022/04/28 02:20:26;;;;;;;7.80;3.53;;;;;;;;;;4976145;28;20050;-90
2022/04/28 02:22:54;;;;;;;9.27;3.88;;;;;;;;;;4957315;28;20506;-90
2022/04/28 02:25:22;;;;;;;11.48;3.75;;;;;;;;;;4960946;28;20789;-89
2022/04/28 02:27:50;;;;;;;8.00;3.70;;;;;;;;;;4969803;28;20051;-90
2022/04/28 02:30:20;;;;;;;7.75;3.78;;;;;;;;;;4954652;28;20071;-90
2022/04/28 02:35:58;;;;;;;8.68;3.53;;;;;;;;;;5034268;28;20700;-90
2022/04/28 02:38:30;;;;;;;10.43;4.18;;;;;;;;;;5020454;28;20063;-90
2022/04/28 02:41:00;;;;;;;9.52;4.10;;;;;;;;;;5015870;28;20044;-90
2022/04/28 02:43:28;;;;;;;11.32;4.18;;;;;;;;;;5049086;28;20052;-90
2022/04/28 02:46:04;;;;;;;7.75;3.72;;;;;;;;;;5036462;28;20136;-90
2022/04/28 02:48:49;;;;;;;7.65;4.03;;;;;;;;;;5028007;28;20797;-90
2022/04/28 02:51:18;;;;;;;12.57;4.20;;;;;;;;;;5013030;28;20132;-90
2022/04/28 02:53:46;;;;;;;9.80;4.25;;;;;;;;;;5041553;28;20071;-90
2022/04/28 02:56:14;;;;;;;11.63;4.63;;;;;;;;;;5004051;28;20083;-90
2022/04/28 02:58:42;;;;;;;10.73;4.05;;;;;;;;;;5007338;28;20117;-90
2022/04/28 03:01:10;;;;;;;8.73;4.18;;;;;;;;;;5030951;28;20512;-90
2022/04/28 03:03:42;;;;;;;8.98;3.88;;;;;;;;;;4998312;28;20140;-89
2022/04/28 03:11:42;;;;;;;8.48;3.80;;;;;;;;;;5021702;28;20040;-90
2022/04/28 03:14:12;;;;;;;9.32;3.83;;;;;;;;;;5015884;28;20053;-89
2022/04/28 03:16:43;;;;;;;12.07;4.57;;;;;;;;;;5010582;28;20168;-90
2022/04/28 03:19:10;;;;;;;8.00;3.97;;;;;;;;;;5007790;28;20041;-90
2022/04/28 03:21:38;;;;;;;11.45;4.30;;;;;;;;;;5027789;28;20072;-90
2022/04/28 03:24:08;;;;;;;11.63;4.38;;;;;;;;;;5033834;28;20095;-90
2022/04/28 03:26:38;;;;;;;14.05;4.55;;;;;;;;;;5025323;28;20107;-89
2022/04/28 03:29:10;;;;;;;11.20;4.35;;;;;;;;;;5035648;28;20041;-90
2022/04/28 03:31:38;;;;;;;7.07;3.75;;;;;;;;;;5000852;28;20049;-90
2022/04/28 03:34:08;;;;;;;7.57;4.25;;;;;;;;;;5022257;28;20045;-90
2022/04/28 03:36:51;;;;;;;10.20;4.57;;;;;;;;;;5045349;28;20032;-90
2022/04/28 03:39:26;;;;;;;11.38;4.72;;;;;;;;;;5018014;28;20049;-89
2022/04/28 03:41:54;;;;;;;10.93;4.25;;;;;;;;;;5019725;28;20092;-90
2022/04/28 03:44:22;;;;;;;11.48;3.97;;;;;;;;;;5031944;28;20045;-89
2022/04/28 03:46:50;;;;;;;12.43;4.20;;;;;;;;;;5020991;28;20564;-90
2022/04/28 03:49:18;;;;;;;11.77;4.57;;;;;;;;;;5022210;28;20044;-90
2022/04/28 03:51:46;;;;;;;7.15;4.20;;;;;;;;;;5009468;28;20096;-90
2022/04/28 03:54:14;;;;;;;10.25;4.28;;;;;;;;;;5012964;28;20045;-90
2022/04/28 03:56:42;;;;;;;10.45;4.22;;;;;;;;;;5033175;28;20057;-90
2022/04/28 03:59:10;;;;;;;10.60;4.90;;;;;;;;;;5001804;28;20876;-90
2022/04/28 04:01:54;;;;;;;9.45;4.38;;;;;;;;;;5045910;28;20053;-90
2022/04/28 04:04:22;;;;;;;11.25;4.32;;;;;;;;;;5018994;28;20045;-90
2022/04/28 04:07:00;;;;;;;11.25;4.38;;;;;;;;;;5005587;28;20505;-90
2022/04/28 04:09:35;;;;;;;12.43;4.28;;;;;;;;;;5036915;28;20044;-90
2022/04/28 04:12:06;;;;;;;10.15;4.25;;;;;;;;;;4998292;28;20061;-90
2022/04/28 04:14:53;;;;;;;14.15;4.50;;;;;;;;;;5047833;28;20045;-90
2022/04/28 04:17:21;;;;;;;10.77;4.88;;;;;;;;;;5038454;28;20048;-91
2022/04/28 04:19:48;;;;;;;11.65;5.10;;;;;;;;;;5042725;28;20049;-90
2022/04/28 04:22:17;;;;;;;16.67;4.93;;;;;;;;;;5040183;28;20385;-90
2022/04/28 04:24:46;;;;;;;9.95;4.60;;;;;;;;;;5039662;28;20056;-90
2022/04/28 04:27:16;;;;;;;10.32;5.00;;;;;;;;;;5020586;28;20540;-90
2022/04/28 04:32:17;;;;;;;13.27;5.30;;;;;;;;;;5049433;28;20044;-90
2022/04/28 04:32:50;;;;;;;10.65;5.22;;;;;;;;;;5033417;28;20125;-91
2022/04/28 04:35:24;;;;;;;13.73;5.38;;;;;;;;;;5013456;28;20052;-91
2022/04/28 04:37:56;;;;;;;10.18;5.18;;;;;;;;;;5030508;28;20500;-91
2022/04/28 04:40:31;;;;;;;23.27;6.55;;;;;;;;;;5055960;28;20584;-91
2022/04/28 04:43:03;;;;;;;12.68;5.78;;;;;;;;;;5023064;28;20139;-91
2022/04/28 04:45:30;;;;;;;14.25;5.90;;;;;;;;;;5022730;28;20064;-91
2022/04/28 04:48:18;;;;;;;14.73;5.60;;;;;;;;;;5041682;28;20122;-91
2022/04/28 04:50:48;;;;;;;18.52;6.00;;;;;;;;;;5027738;28;20092;-91
2022/04/28 04:53:30;;;;;;;13.00;6.45;;;;;;;;;;5036666;28;20037;-91
2022/04/28 04:55:58;;;;;;;17.75;6.75;;;;;;;;;;5012932;28;20489;-91
2022/04/28 04:58:26;;;;;;;13.30;6.20;;;;;;;;;;5046110;28;20064;-91
2022/04/28 05:00:56;;;;;;;11.85;5.82;;;;;;;;;;5002744;28;20140;-91
2022/04/28 05:03:25;;;;;;;16.40;5.85;;;;;;;;;;5038120;28;20044;-91
2022/04/28 05:06:04;;;;;;;14.43;6.20;;;;;;;;;;5052922;28;20044;-91
2022/04/28 05:08:50;;;;;;;;;;;;;;;;;;5021962;28;20098;-91
2022/04/28 05:11:18;;;;;;;14.65;6.03;;;;;;;;;;5031455;28;19928;-91
2022/04/28 05:14:02;;;;;;;19.00;7.00;;;;;;;;;;5006128;28;20045;-90
2022/04/28 05:16:30;;;;;;;16.02;7.50;;;;;;;;;;5003830;28;20732;-92
2022/04/28 05:19:10;;;;;;;15.23;7.47;;;;;;;;;;5037127;28;20060;-91
2022/04/28 05:21:51;;;;;;;17.65;7.88;;;;;;;;;;5019449;28;20481;-92
2022/04/28 05:24:36;;;;;;;18.75;8.30;;;;;;;;;;5043518;28;20045;-91
2022/04/28 05:27:28;;;;;;;26.38;7.95;;;;;;;;;;5027503;28;20055;-89
2022/04/28 05:30:14;;;;;;;21.15;7.15;;;;;;;;;;5034643;28;20213;-91
2022/04/28 05:33:02;;;;;;;17.65;7.68;;;;;;;;;;5047190;28;20040;-90
2022/04/28 05:35:54;;;;;;;21.17;8.02;;;;;;;;;;5038856;28;20048;-91
2022/04/28 05:38:22;;;;;;;21.25;8.75;;;;;;;;;;5016133;28;20115;-92
2022/04/28 05:40:50;;;;;;;24.70;8.40;;;;;;;;;;4999241;28;20037;-89
2022/04/28 05:46:05;;;;;;;;;;;;;;;;;;5035444;28;20480;-90
2022/04/28 05:48:34;;;;;;;20.13;8.15;;;;;;;;;;5021354;28;19920;-90
2022/04/28 05:51:09;;;;;;;22.42;8.55;;;;;;;;;;5043232;28;20401;-90
2022/04/28 05:53:36;;;;;;;19.45;7.68;;;;;;;;;;5051186;28;20408;-89
2022/04/28 05:56:06;;;;;;;18.48;7.75;;;;;;;;;;5017913;28;20399;-90
2022/04/28 05:58:40;;;;;;;19.45;8.00;;;;;;;;;;5055740;28;20476;-90
2022/04/28 06:01:26;;;;;;;17.05;7.65;;;;;;;;;;5035577;28;20067;-90
2022/04/28 06:03:58;;;;;;;21.35;7.97;;;;;;;;;;5036211;28;20051;-91
2022/04/28 06:06:26;;;;;;;17.38;7.43;;;;;;;;;;5012732;28;20040;-90
2022/04/28 06:08:58;;;;;;;17.65;7.20;;;;;;;;;;5020264;28;20148;-90
2022/04/28 06:11:26;;;;;;;19.52;7.72;;;;;;;;;;5054768;28;20381;-90
2022/04/28 06:13:54;;;;;;;16.52;6.93;;;;;;;;;;5017388;28;20438;-91
2022/04/28 06:16:41;;;;;;;15.45;7.25;;;;;;;;;;5038982;28;20052;-90
2022/04/28 06:19:23;;;;;;;16.77;6.72;;;;;;;;;;5031393;28;20047;-90
2022/04/28 06:22:18;;;;;;;22.23;7.05;;;;;;;;;;5026349;28;20128;-91
2022/04/28 06:24:51;;;;;;;19.45;5.85;;;;;;;;;;5006716;28;20076;-91
2022/04/28 06:27:22;;;;;;;15.32;6.47;;;;;;;;;;5002699;28;20056;-90
2022/04/28 06:29:53;;;;;;;14.48;6.03;;;;;;;;;;5002504;28;20429;-90
2022/04/28 06:32:23;;;;;;;13.65;5.53;;;;;;;;;;5014419;28;20053;-91
2022/04/28 06:35:12;;;;;;;12.73;5.85;;;;;;;;;;4931683;29;20692;-91
2022/04/28 06:37:40;;;;;;;11.40;5.32;;;;;;;;;;4933261;29;20578;-91
2022/04/28 06:40:12;;;;;;;13.95;5.43;;;;;;;;;;4927938;29;20052;-91
2022/04/28 06:42:45;;;;;;;14.50;5.40;;;;;;;;;;4942112;29;20054;-91
2022/04/28 06:49:11;;;;;;;13.70;4.70;;;;;;;;;;4934407;29;20412;-91
2022/04/28 06:52:04;;;;;;;15.38;5.05;;;;;;;;;;4909555;29;20134;-91
2022/04/28 06:54:56;;;;;;;18.88;5.55;;;;;;;;;;4933936;29;20051;-91
2022/04/28 06:57:28;;;;;;;7.78;4.10;;;;;;;;;;4914318;29;20107;-91
2022/04/28 07:00:11;;;;;;;9.85;4.10;;;;;;;;;;4915678;29;20048;-91
2022/04/28 07:02:46;;;;;;;11.80;4.80;;;;;;;;;;4915758;29;20637;-91
2022/04/28 07:05:14;;;;;;;7.55;4.30;;;;;;;;;;4920811;29;20047;-91
2022/04/28 07:07:42;;;;;;;10.05;3.40;;;;;;;;;;4931270;29;20071;-91
2022/04/28 07:10:18;;;;;;;7.70;3.15;;;;;;;;;;4931779;29;20047;-91
2022/04/28 07:12:49;;;;;;;9.05;3.60;;;;;;;;;;4978406;28;20045;-91
2022/04/28 07:16:00;;;;;;;7.93;2.95;;;;;;;;;;5046771;28;21765;-91
2022/04/28 07:18:55;;;;;;;8.40;3.42;;;;;;;;;;5047961;28;20480;-91
2022/04/28 07:21:25;;;;;;;9.77;3.00;;;;;;;;;;5032582;28;20037;-92
2022/04/28 07:23:54;;;;;;;8.95;3.30;;;;;;;;;;5001921;28;20064;-91
2022/04/28 07:26:37;;;;;;;6.72;2.80;;;;;;;;;;4988783;28;20120;-91
2022/04/28 07:29:05;;;;;;;16.05;3.40;;;;;;;;;;4993153;28;20042;-91
2022/04/28 07:31:52;;;;;;;14.60;2.88;;;;;;;;;;5009057;28;20045;-91
2022/04/28 07:34:38;;;;;;;7.75;2.67;;;;;;;;;;5009740;28;20151;-91
2022/04/28 07:37:27;;;;;;;9.70;2.95;;;;;;;;;;4993578;28;20056;-91
2022/04/28 07:40:17;;;;;;;14.27;3.50;;;;;;;;;;5009963;28;20050;-91
2022/04/28 07:42:54;;;;;;;8.95;3.38;;;;;;;;;;4975424;28;20050;-91
2022/04/28 07:45:24;;;;;;;7.15;3.17;;;;;;;;;;4981877;28;20136;-91
2022/04/28 07:48:22;;;;;;;8.57;3.05;;;;;;;;;;4975757;28;20065;-91
2022/04/28 07:50:57;;;;;;;8.82;4.03;;;;;;;;;;4979564;28;20061;-91
2022/04/28 07:53:31;;;;;;;9.52;4.05;;;;;;;;;;4980946;28;20112;-91
2022/04/28 07:56:11;;;;;;;8.73;3.60;;;;;;;;;;4979587;28;20156;-91
2022/04/28 07:58:42;;;;;;;12.82;4.05;;;;;;;;;;5001351;28;20130;-91
2022/04/28 08:01:37;;;;;;;7.97;3.58;;;;;;;;;;5012239;28;20060;-91
2022/04/28 08:04:14;;;;;;;8.00;3.13;;;;;;;;;;5018191;28;20163;-92
2022/04/28 08:06:49;;;;;;;9.73;3.55;;;;;;;;;;5038837;28;20404;-91
2022/04/28 08:09:20;;;;;;;9.45;3.67;;;;;;;;;;5008569;28;20127;-91
2022/04/28 08:11:49;;;;;;;11.90;3.97;;;;;;;;;;5037714;28;20033;-91
2022/04/28 08:14:30;;;;;;;9.15;3.20;;;;;;;;;;4972730;28;20042;-91
2022/04/28 08:17:11;;;;;;;7.93;3.22;;;;;;;;;;4994593;28;20030;-91
2022/04/28 08:19:38;;;;;;;12.25;3.40;;;;;;;;;;4962127;28;20047;-91
2022/04/28 08:22:08;;;;;;;8.00;3.30;;;;;;;;;;5001044;28;20033;-91
2022/04/28 08:24:38;;;;;;;9.38;3.15;;;;;;;;;;4949980;28;20656;-91
2022/04/28 08:27:06;;;;;;;7.47;3.40;;;;;;;;;;4945047;28;20101;-92
2022/04/28 08:29:36;;;;;;;9.13;3.58;;;;;;;;;;4974439;28;20050;-92
2022/04/28 08:32:22;;;;;;;8.27;3.97;;;;;;;;;;4956386;28;20046;-92
2022/04/28 08:34:53;;;;;;;8.70;4.45;;;;;;;;;;4987154;28;20441;-91
2022/04/28 08:38:10;;;;;;;11.77;4.07;;;;;;;;;;4926127;29;20043;-92
2022/04/28 08:40:46;;;;;;;7.32;3.58;;;;;;;;;;4934874;29;20051;-92
2022/04/28 08:43:29;;;;;;;8.52;3.42;;;;;;;;;;4926015;29;20448;-92
2022/04/28 08:48:54;;;;;;;6.78;3.22;;;;;;;;;;4945737;28;20056;-92
2022/04/28 08:51:25;;;;;;;10.60;3.92;;;;;;;;;;4971912;28;20050;-92
2022/04/28 08:54:30;;;;;;;8.80;3.75;;;;;;;;;;4995203;28;20045;-92
2022/04/28 08:57:19;;;;;;;12.63;4.43;;;;;;;;;;4994830;28;20085;-92
2022/04/28 08:59:55;;;;;;;7.60;3.92;;;;;;;;;;4985504;28;20041;-92
2022/04/28 09:03:24;;;;;;;8.77;4.20;;;;;;;;;;4989100;28;20069;-92
2022/04/28 09:14:34;;;;;;;6.45;3.72;;;;;;;;;;5043226;28;20060;-85
2022/04/28 09:17:59;;;;;;;13.13;4.60;;;;;;;;;;5041882;28;20067;-82
2022/04/28 09:22:00;;;;;;;9.70;4.25;;;;;;;;;;5023184;28;20122;-85
2022/04/28 09:26:05;;;;;;;7.32;3.85;;;;;;;;;;5042931;28;20055;-82
2022/04/28 09:29:11;;;;;;;9.40;4.35;;;;;;;;;;5020147;28;20490;-85
2022/04/28 09:32:58;;;;;;;10.80;4.20;;;;;;;;;;5011075;28;20053;-85
2022/04/28 09:37:26;;;;;;;8.50;4.10;;;;;;;;;;4922120;29;20056;-82
2022/04/28 09:45:42;;;;;;;10.13;5.15;;;;;;;;;;4842614;29;20118;-83
2022/04/28 09:50:07;;;;;;;9.82;4.03;;;;;;;;;;4816155;29;20054;-83
2022/04/28 09:54:41;;;;;;;12.07;4.80;;;;;;;;;;4815419;29;20054;-82
2022/04/28 09:59:13;;;;;;;9.60;4.45;;;;;;;;;;4798339;29;20615;-82
2022/04/28 10:02:17;;;;;;;13.35;4.30;;;;;;;;;;4793470;29;20287;-85
2022/04/28 10:04:58;;;;;;;8.23;4.72;;;;;;;;;;4778366;29;20074;-85
2022/04/28 10:07:51;;;;;;;10.77;4.00;;;;;;;;;;4796090;29;20070;-85
2022/04/28 10:11:59;;;;;;;8.60;4.55;;;;;;;;;;4781219;29;20535;-83
2022/04/28 10:15:34;;;;;;;12.25;4.75;;;;;;;;;;4803211;29;20057;-84
2022/04/28 10:18:49;;;;;;;8.90;5.07;;;;;;;;;;4800802;29;22571;-84
2022/04/28 10:21:43;;;;;;;9.30;4.65;;;;;;;;;;4871986;29;20563;-85
2022/04/28 10:58:35;;;;;;;8.00;4.40;;;;;;;;;;4887659;29;20047;-83
2022/04/28 11:03:29;;;;;;;10.43;4.43;;;;;;;;;;4888349;29;20725;-83
2022/04/28 11:08:10;;;;;;;8.88;4.70;;;;;;;;;;4861844;29;20041;-82
2022/04/28 11:22:11;;;;;;;11.55;4.93;;;;;;;;;;4738638;30;20068;-82
2022/04/28 11:26:16;;;;;;;8.70;4.38;;;;;;;;;;4741972;30;20794;-82
2022/04/28 11:30:26;;;;;;;7.32;4.40;;;;;;;;;;4735419;30;20048;-83
2022/04/28 11:34:31;;;;;;;6.95;4.25;;;;;;;;;;4669057;30;20058;-84
2022/04/28 11:38:00;;;;;;;10.50;4.35;;;;;;;;;;4660133;30;20058;-85
2022/04/28 11:41:06;;;;;;;9.23;4.30;;;;;;;;;;4656973;30;20093;-83
2022/04/28 11:43:58;;;;;;;8.40;4.90;;;;;;;;;;4675729;30;20070;-82
2022/04/28 11:46:59;;;;;;;7.00;3.80;;;;;;;;;;4721156;30;20099;-85
2022/04/28 11:50:34;;;;;;;10.57;4.15;;;;;;;;;;4742875;30;20060;-82
2022/04/28 11:53:59;;;;;;;9.52;4.68;;;;;;;;;;4747553;30;20047;-82
2022/04/28 11:57:22;;;;;;;12.13;3.90;;;;;;;;;;4822214;29;20523;-85
2022/04/28 12:00:55;;;;;;;8.68;4.38;;;;;;;;;;4856000;29;20566;-82
2022/04/28 12:04:19;;;;;;;10.07;4.22;;;;;;;;;;4883965;29;20140;-87
2022/04/28 12:08:47;;;;;;;6.70;3.97;;;;;;;;;;4945940;28;20492;-86
2022/04/28 12:25:41;;;;;;;6.82;4.25;;;;;;;;;;4954782;28;20074;-83
2022/04/28 12:30:35;;;;;;;7.15;3.75;;;;;;;;;;4906878;29;20048;-83
2022/04/28 12:33:41;;;;;;;9.05;4.40;;;;;;;;;;4887737;29;20083;-86
2022/04/28 12:37:02;;;;;;;7.20;3.95;;;;;;;;;;4887973;29;20996;-85
2022/04/28 12:41:08;;;;;;;7.97;3.72;;;;;;;;;;4889781;29;20104;-83
2022/04/28 13:08:24;;;;;;;6.20;4.00;;;;;;;;;;4929449;28;20073;-84
2022/04/28 13:13:23;;;;;;;9.85;5.25;;;;;;;;;;4911005;29;20086;-87
2022/04/28 13:32:17;;;;;;;7.35;4.53;;;;;;;;;;4831706;29;20061;-84
2022/04/28 16:02:33;;;;;;;4.93;1.67;;;;;;;;;;5057257;28;20123;-88
2022/04/28 17:34:21;;;;;;;8.32;1.58;;;;;;;;;;5063866;28;20585;-84
2022/04/28 18:06:12;;;;;;;4.18;1.30;;;;;;;;;;5038848;28;20962;-86
2022/04/28 18:08:40;;;;;;;7.50;1.50;;;;;;;;;;5040361;28;20060;-81
2022/04/28 18:12:14;;;;;;;6.90;1.60;;;;;;;;;;5016471;28;20053;-86
2022/04/28 18:14:56;;;;;;;3.70;1.42;;;;;;;;;;5026467;28;20065;-81
2022/04/28 18:17:38;;;;;;;8.25;1.50;;;;;;;;;;5022363;28;20085;-85
2022/04/28 18:20:07;;;;;;;4.93;1.15;;;;;;;;;;5009232;28;20061;-86
2022/04/28 18:32:49;;;;;;;8.88;1.30;;;;;;;;;;4941087;28;20053;-88
2022/04/28 19:09:45;;;;;;;9.23;2.72;;;;;;;;;;5041002;28;20052;-84
2022/04/28 19:19:31;;;;;;;6.57;1.77;;;;;;;;;;4907395;29;20089;-86
2022/04/28 19:24:09;;;;;;;6.03;1.77;;;;;;;;;;4866496;29;20063;-85
2022/04/28 19:28:09;;;;;;;13.65;2.65;;;;;;;;;;4899845;29;20082;-84
2022/04/28 19:32:33;;;;;;;11.50;2.17;;;;;;;;;;4898003;29;20485;-85
2022/04/28 19:36:59;;;;;;;8.05;1.80;;;;;;;;;;4820142;29;20045;-86
2022/04/28 19:55:07;;;;;;;8.00;2.03;;;;;;;;;;4838970;29;20657;-85
2022/04/28 19:58:28;;;;;;;5.85;2.25;;;;;;;;;;4829696;29;20126;-84
2022/04/28 20:02:10;;;;;;;8.02;2.20;;;;;;;;;;4842941;29;20544;-85
2022/04/28 20:06:42;;;;;;;6.60;1.98;;;;;;;;;;4851008;29;20136;-86
2022/04/28 20:15:43;;;;;;;5.80;2.08;;;;;;;;;;4856632;29;20182;-86
2022/04/28 20:29:36;;;;;;;8.10;2.33;;;;;;;;;;4863537;29;20988;-85
2022/04/28 20:34:08;;;;;;;7.78;2.25;;;;;;;;;;4798013;29;20050;-86
2022/04/28 20:39:06;;;;;;;10.10;2.63;;;;;;;;;;4842223;29;20053;-85
2022/04/28 20:43:24;;;;;;;7.28;2.05;;;;;;;;;;4846853;29;20132;-84
2022/04/28 20:55:21;;;;;;;8.05;2.50;;;;;;;;;;4842458;29;20083;-85
2022/04/28 20:58:57;;;;;;;8.77;2.95;;;;;;;;;;4832761;29;20091;-85
